createdAt,value
2018-06-16T09:19:34.712Z,0.00
2018-06-16T09:20:06.149Z,20.00
2018-06-16T09:20:37.484Z,19.00
2018-06-16T09:21:08.819Z,19.00
2018-06-16T09:21:40.051Z,19.60
2018-06-16T09:22:11.385Z,18.60
2018-06-16T09:22:42.842Z,19.00
2018-06-16T09:23:14.171Z,19.00
2018-06-16T09:23:45.593Z,19.00
2018-06-16T09:24:17.828Z,19.00
2018-06-16T09:24:49.184Z,17.00
2018-06-16T09:25:20.581Z,19.60
2018-06-16T09:25:51.853Z,18.40
2018-06-16T09:26:23.189Z,19.75
2018-06-16T09:26:54.525Z,19.00
2018-06-16T09:27:25.857Z,18.00
2018-06-16T09:27:56.996Z,19.40
2018-06-16T09:28:28.219Z,20.00
2018-06-16T09:28:59.656Z,19.75
2018-06-16T09:29:30.990Z,19.00
2018-06-16T09:30:02.433Z,19.00
2018-06-16T09:31:08.279Z,19.25
2018-06-16T09:31:39.660Z,19.00
2018-06-16T09:32:45.759Z,19.50
2018-06-16T09:33:17.193Z,19.00
2018-06-16T09:33:48.631Z,21.80
2018-06-16T09:42:40.925Z,20.00
2018-06-16T09:52:54.400Z,20.00
2018-06-16T10:05:52.429Z,19.50
2018-06-16T10:10:55.509Z,21.00
2018-06-16T10:15:59.003Z,19.25
2018-06-16T10:21:02.019Z,19.40
2018-06-16T10:26:05.833Z,16.60
2018-06-16T10:31:08.980Z,17.00
2018-06-16T10:36:12.189Z,16.75
2018-06-16T10:41:15.295Z,15.50
2018-06-16T10:46:18.402Z,17.00
2018-06-16T11:00:55.192Z,16.75
2018-06-16T11:05:58.885Z,17.50
2018-06-16T11:11:02.466Z,17.00
2018-06-16T11:16:06.724Z,15.75
2018-06-16T11:21:10.445Z,16.50
2018-06-16T11:26:14.299Z,16.25
2018-06-16T12:18:49.228Z,15.00
2018-06-16T12:23:52.389Z,15.25
2018-06-16T12:28:55.817Z,15.20
2018-06-16T12:34:02.804Z,16.50
2018-06-16T12:39:08.352Z,14.75
2018-06-16T12:44:11.888Z,14.25
2018-06-16T12:49:15.108Z,14.50
2018-06-16T12:54:18.352Z,15.60
2018-06-16T12:59:21.900Z,15.00
2018-06-16T13:04:25.323Z,15.25
2018-06-16T13:09:28.666Z,14.00
2018-06-16T13:14:31.838Z,15.00
2018-06-16T13:19:35.108Z,14.25
2018-06-16T13:24:38.508Z,15.00
2018-06-16T13:29:41.707Z,14.60
2018-06-16T13:34:45.006Z,14.25
2018-06-16T13:39:48.293Z,14.00
2018-06-16T13:44:51.771Z,15.00
2018-06-16T13:49:55.216Z,14.75
2018-06-16T13:54:58.632Z,14.75
2018-06-16T14:00:02.061Z,14.50
2018-06-16T14:05:05.597Z,13.75
2018-06-16T14:10:09.382Z,15.00
2018-06-16T14:15:13.647Z,13.60
2018-06-16T14:20:16.840Z,15.25
2018-06-16T14:25:20.425Z,16.00
2018-06-16T14:30:23.753Z,15.00
2018-06-16T14:35:27.076Z,14.25
2018-06-16T14:40:31.535Z,16.50
2018-06-16T14:45:35.143Z,14.50
2018-06-16T14:50:38.359Z,15.75
2018-06-16T14:55:41.848Z,17.00
2018-06-16T15:00:45.109Z,16.50
2018-06-16T15:05:48.325Z,14.33
2018-06-16T15:10:52.801Z,15.25
2018-06-16T15:15:56.199Z,14.75
2018-06-16T15:20:59.630Z,14.25
2018-06-16T15:26:03.263Z,16.60
2018-06-16T15:31:06.629Z,16.60
2018-06-16T15:36:09.957Z,15.25
2018-06-16T15:41:13.531Z,14.50
2018-06-16T15:46:17.032Z,15.00
2018-06-16T15:51:20.624Z,18.00
2018-06-16T15:56:24.719Z,18.75
2018-06-16T16:01:27.969Z,21.00
2018-06-16T16:06:31.210Z,20.25
2018-06-16T16:11:34.439Z,20.50
2018-06-16T16:16:37.793Z,21.25
2018-06-16T16:21:41.083Z,21.00
2018-06-16T16:26:44.329Z,21.00
2018-06-16T16:31:47.708Z,19.75
2018-06-16T16:36:50.970Z,18.75
2018-06-16T16:41:54.261Z,21.17
2018-06-16T16:46:57.528Z,18.75
2018-06-16T16:52:00.985Z,19.00
2018-06-16T16:57:04.676Z,19.00
2018-06-16T17:02:08.016Z,19.00
2018-06-16T17:07:11.405Z,19.00
2018-06-16T17:12:14.791Z,17.25
2018-06-16T17:17:18.199Z,18.80
2018-06-16T17:22:21.620Z,15.75
2018-06-16T17:27:25.183Z,19.00
2018-06-16T17:32:28.698Z,19.25
2018-06-16T17:37:32.060Z,18.00
2018-06-16T17:42:35.318Z,19.00
2018-06-16T17:47:38.872Z,18.33
2018-06-16T17:52:42.101Z,18.50
2018-06-16T17:57:45.457Z,19.00
2018-06-16T18:02:48.767Z,19.00
2018-06-16T18:07:52.081Z,18.75
2018-06-16T18:12:55.280Z,18.00
2018-06-16T18:17:58.691Z,19.00
2018-06-16T18:23:02.008Z,19.00
2018-06-16T18:28:06.014Z,19.00
2018-06-16T18:33:09.273Z,20.00
2018-06-16T18:38:12.656Z,20.25
2018-06-16T18:43:15.920Z,19.25
2018-06-16T18:48:19.379Z,21.20
2018-06-16T18:53:22.688Z,19.75
2018-06-16T18:58:25.952Z,20.25
2018-06-16T19:03:29.310Z,21.00
2018-06-16T19:08:32.978Z,21.75
2018-06-16T19:13:36.342Z,22.00
2018-06-16T19:18:39.587Z,22.80
2018-06-16T19:23:41.276Z,22.40
2018-06-16T19:28:42.421Z,22.20
2018-06-16T19:33:43.516Z,21.60
2018-06-16T19:38:44.559Z,21.50
2018-06-16T19:43:45.717Z,22.80
2018-06-16T19:48:46.716Z,22.40
2018-06-16T19:53:47.936Z,23.50
2018-06-16T19:58:48.969Z,23.60
2018-06-16T20:08:09.816Z,23.50
2018-06-16T20:13:10.941Z,23.00
2018-06-16T20:18:11.997Z,24.00
2018-06-16T20:23:13.148Z,22.80
2018-06-16T20:28:14.205Z,22.00
2018-06-16T20:33:15.265Z,22.00
2018-06-16T20:38:16.377Z,23.00
2018-06-16T20:43:17.593Z,22.00
2018-06-16T20:48:18.958Z,22.00
2018-06-16T20:53:20.124Z,22.00
2018-06-16T20:58:21.149Z,21.25
2018-06-16T21:03:22.204Z,22.40
2018-06-16T21:08:23.394Z,21.33
2018-06-16T21:13:24.569Z,23.25
2018-06-16T21:18:25.573Z,22.60
2018-06-16T21:23:26.741Z,22.50
2018-06-16T21:28:27.829Z,22.00
2018-06-16T21:33:28.893Z,21.00
2018-06-16T21:38:30.018Z,22.20
2018-06-16T21:43:31.076Z,21.00
2018-06-16T21:48:32.119Z,21.40
2018-06-16T21:53:33.141Z,22.50
2018-06-16T21:58:34.353Z,21.00
2018-06-16T22:03:35.402Z,21.75
2018-06-16T22:08:36.575Z,22.25
2018-06-16T22:13:37.589Z,20.75
2018-06-16T22:18:38.779Z,21.00
2018-06-16T22:23:39.976Z,20.75
2018-06-16T22:28:41.117Z,21.25
2018-06-16T22:33:42.193Z,21.25
2018-06-16T22:38:43.212Z,21.00
2018-06-16T22:43:44.284Z,21.00
2018-06-16T22:48:45.463Z,22.25
2018-06-16T22:53:46.500Z,20.40
2018-06-16T22:58:47.627Z,20.50
2018-06-16T23:03:48.846Z,22.00
2018-06-16T23:08:49.872Z,20.25
2018-06-16T23:13:50.962Z,20.20
2018-06-16T23:18:52.225Z,19.75
2018-06-16T23:23:53.269Z,21.00
2018-06-16T23:28:54.349Z,20.50
2018-06-16T23:33:55.379Z,21.00
2018-06-16T23:38:56.408Z,20.75
2018-06-16T23:43:57.488Z,20.00
2018-06-16T23:48:58.515Z,20.80
2018-06-16T23:53:59.542Z,20.20
2018-06-16T23:59:00.562Z,21.00
